sensor_id;sensor_type;location;lat;lon;timestamp;pressure;altitude;pressure_sealevel;temperature;humidity
65276;BME280;51875;49.994;14.052;2023-03-23T00:00:03;97759.66;;;8.52;100.00
65276;BME280;51875;49.994;14.052;2023-03-23T00:01:21;97757.25;;;8.44;100.00
65276;BME280;51875;49.994;14.052;2023-03-23T00:02:37;97750.69;;;8.32;100.00
65276;BME280;51875;49.994;14.052;2023-03-23T00:03:54;97751.72;;;8.26;100.00
65276;BME280;51875;49.994;14.052;2023-03-23T00:05:12;97755.00;;;8.33;100.00
65276;BME280;51875;49.994;14.052;2023-03-23T00:06:28;97755.06;;;8.30;100.00
65276;BME280;51875;49.994;14.052;2023-03-23T00:07:48;97753.13;;;8.37;100.00
65276;BME280;51875;49.994;14.052;2023-03-23T00:09:08;97759.22;;;8.37;100.00
65276;BME280;51875;49.994;14.052;2023-03-23T00:10:24;97758.31;;;8.38;100.00
65276;BME280;51875;49.994;14.052;2023-03-23T00:11:42;97758.09;;;8.44;100.00
65276;BME280;51875;49.994;14.052;2023-03-23T00:12:58;97756.41;;;8.43;100.00
65276;BME280;51875;49.994;14.052;2023-03-23T00:14:17;97756.75;;;8.31;100.00
65276;BME280;51875;49.994;14.052;2023-03-23T00:15:37;97754.94;;;8.34;100.00
65276;BME280;51875;49.994;14.052;2023-03-23T00:16:56;97755.78;;;8.35;100.00
65276;BME280;51875;49.994;14.052;2023-03-23T00:18:12;97756.75;;;8.31;100.00
65276;BME280;51875;49.994;14.052;2023-03-23T00:19:39;97753.09;;;8.38;100.00
65276;BME280;51875;49.994;14.052;2023-03-23T00:21:01;97750.38;;;8.41;100.00
65276;BME280;51875;49.994;14.052;2023-03-23T00:22:19;97753.88;;;8.40;100.00
65276;BME280;51875;49.994;14.052;2023-03-23T00:23:36;97750.56;;;8.35;100.00
65276;BME280;51875;49.994;14.052;2023-03-23T00:24:54;97744.25;;;8.42;100.00
65276;BME280;51875;49.994;14.052;2023-03-23T00:26:10;97758.06;;;8.46;100.00
65276;BME280;51875;49.994;14.052;2023-03-23T00:27:26;97750.44;;;8.40;100.00
65276;BME280;51875;49.994;14.052;2023-03-23T00:28:42;97746.66;;;8.20;100.00
65276;BME280;51875;49.994;14.052;2023-03-23T00:29:58;97749.50;;;8.12;100.00
65276;BME280;51875;49.994;14.052;2023-03-23T00:31:13;97747.63;;;8.17;100.00
65276;BME280;51875;49.994;14.052;2023-03-23T00:32:29;97746.63;;;8.22;100.00
65276;BME280;51875;49.994;14.052;2023-03-23T00:33:45;97746.00;;;8.13;100.00
65276;BME280;51875;49.994;14.052;2023-03-23T00:35:00;97750.94;;;8.23;100.00
65276;BME280;51875;49.994;14.052;2023-03-23T00:36:16;97745.53;;;8.29;100.00
65276;BME280;51875;49.994;14.052;2023-03-23T00:37:33;97742.34;;;8.19;100.00
65276;BME280;51875;49.994;14.052;2023-03-23T00:38:50;97738.56;;;8.29;100.00
65276;BME280;51875;49.994;14.052;2023-03-23T00:40:06;97745.94;;;8.15;100.00
65276;BME280;51875;49.994;14.052;2023-03-23T00:41:26;97734.53;;;8.19;100.00
65276;BME280;51875;49.994;14.052;2023-03-23T00:42:44;97736.53;;;8.11;100.00
65276;BME280;51875;49.994;14.052;2023-03-23T00:44:02;97739.63;;;8.22;100.00
65276;BME280;51875;49.994;14.052;2023-03-23T00:45:17;97735.41;;;8.19;100.00
65276;BME280;51875;49.994;14.052;2023-03-23T00:46:33;97737.03;;;8.22;100.00
65276;BME280;51875;49.994;14.052;2023-03-23T00:47:48;97733.53;;;7.93;100.00
65276;BME280;51875;49.994;14.052;2023-03-23T00:49:06;97733.94;;;7.79;100.00
65276;BME280;51875;49.994;14.052;2023-03-23T00:50:21;97725.69;;;7.63;100.00
65276;BME280;51875;49.994;14.052;2023-03-23T00:51:38;97729.28;;;7.59;100.00
65276;BME280;51875;49.994;14.052;2023-03-23T00:52:54;97719.91;;;7.52;100.00
65276;BME280;51875;49.994;14.052;2023-03-23T00:54:12;97724.09;;;7.89;100.00
65276;BME280;51875;49.994;14.052;2023-03-23T00:55:27;97717.56;;;7.74;100.00
65276;BME280;51875;49.994;14.052;2023-03-23T00:56:45;97714.56;;;7.88;100.00
65276;BME280;51875;49.994;14.052;2023-03-23T00:58:01;97721.41;;;7.92;100.00
65276;BME280;51875;49.994;14.052;2023-03-23T00:59:17;97713.44;;;7.97;100.00
65276;BME280;51875;49.994;14.052;2023-03-23T01:00:32;97723.09;;;7.93;100.00
65276;BME280;51875;49.994;14.052;2023-03-23T01:01:48;97714.66;;;8.15;100.00
65276;BME280;51875;49.994;14.052;2023-03-23T01:03:05;97720.41;;;8.26;100.00
65276;BME280;51875;49.994;14.052;2023-03-23T01:04:21;97715.47;;;8.17;100.00
65276;BME280;51875;49.994;14.052;2023-03-23T01:05:38;97715.28;;;8.23;100.00
65276;BME280;51875;49.994;14.052;2023-03-23T01:06:54;97715.28;;;8.23;100.00
65276;BME280;51875;49.994;14.052;2023-03-23T01:08:12;97713.41;;;8.28;100.00
65276;BME280;51875;49.994;14.052;2023-03-23T01:09:28;97717.66;;;8.31;100.00
65276;BME280;51875;49.994;14.052;2023-03-23T01:10:43;97712.53;;;8.28;100.00
65276;BME280;51875;49.994;14.052;2023-03-23T01:11:59;97704.84;;;8.23;100.00
65276;BME280;51875;49.994;14.052;2023-03-23T01:13:15;97706.75;;;8.18;100.00
65276;BME280;51875;49.994;14.052;2023-03-23T01:14:31;97700.53;;;8.22;100.00
65276;BME280;51875;49.994;14.052;2023-03-23T01:15:46;97701.41;;;8.23;100.00
65276;BME280;51875;49.994;14.052;2023-03-23T01:17:02;97690.94;;;8.24;100.00
65276;BME280;51875;49.994;14.052;2023-03-23T01:18:18;97696.03;;;8.27;100.00
65276;BME280;51875;49.994;14.052;2023-03-23T01:19:33;97691.19;;;8.15;100.00
65276;BME280;51875;49.994;14.052;2023-03-23T01:20:49;97694.06;;;7.75;100.00
65276;BME280;51875;49.994;14.052;2023-03-23T01:22:05;97691.69;;;7.98;100.00
65276;BME280;51875;49.994;14.052;2023-03-23T01:23:20;97683.34;;;7.86;100.00
65276;BME280;51875;49.994;14.052;2023-03-23T01:24:36;97687.72;;;7.86;100.00
65276;BME280;51875;49.994;14.052;2023-03-23T01:25:52;97687.06;;;7.77;100.00
65276;BME280;51875;49.994;14.052;2023-03-23T01:27:09;97683.66;;;7.75;100.00
65276;BME280;51875;49.994;14.052;2023-03-23T01:28:25;97690.13;;;7.62;100.00
65276;BME280;51875;49.994;14.052;2023-03-23T01:29:41;97688.31;;;7.64;100.00
65276;BME280;51875;49.994;14.052;2023-03-23T01:31:04;97687.88;;;7.80;100.00
65276;BME280;51875;49.994;14.052;2023-03-23T01:32:20;97687.81;;;7.83;100.00
65276;BME280;51875;49.994;14.052;2023-03-23T01:33:36;97691.03;;;7.91;100.00
65276;BME280;51875;49.994;14.052;2023-03-23T01:34:52;97681.22;;;7.99;100.00
65276;BME280;51875;49.994;14.052;2023-03-23T01:36:15;97687.38;;;7.97;100.00
65276;BME280;51875;49.994;14.052;2023-03-23T01:37:30;97679.53;;;7.98;100.00
65276;BME280;51875;49.994;14.052;2023-03-23T01:38:47;97678.69;;;7.66;100.00
65276;BME280;51875;49.994;14.052;2023-03-23T01:40:03;97673.19;;;7.77;100.00
65276;BME280;51875;49.994;14.052;2023-03-23T01:41:21;97675.50;;;7.86;100.00
65276;BME280;51875;49.994;14.052;2023-03-23T01:42:37;97673.88;;;7.84;100.00
65276;BME280;51875;49.994;14.052;2023-03-23T01:44:03;97670.41;;;7.83;100.00
65276;BME280;51875;49.994;14.052;2023-03-23T01:46:35;97670.41;;;7.83;100.00
65276;BME280;51875;49.994;14.052;2023-03-23T01:49:19;97665.03;;;7.89;100.00
65276;BME280;51875;49.994;14.052;2023-03-23T01:50:41;97665.88;;;7.90;100.00
65276;BME280;51875;49.994;14.052;2023-03-23T01:52:03;97663.03;;;7.98;100.00
65276;BME280;51875;49.994;14.052;2023-03-23T01:53:21;97666.53;;;7.97;100.00
65276;BME280;51875;49.994;14.052;2023-03-23T01:54:39;97665.50;;;8.02;100.00
65276;BME280;51875;49.994;14.052;2023-03-23T01:55:56;97671.78;;;7.95;100.00
65276;BME280;51875;49.994;14.052;2023-03-23T01:57:16;97670.63;;;7.75;100.00
65276;BME280;51875;49.994;14.052;2023-03-23T01:58:34;97669.81;;;7.73;100.00
65276;BME280;51875;49.994;14.052;2023-03-23T01:59:53;97666.47;;;7.68;100.00
65276;BME280;51875;49.994;14.052;2023-03-23T02:01:12;97667.25;;;7.72;100.00
65276;BME280;51875;49.994;14.052;2023-03-23T02:02:28;97671.31;;;7.82;100.00
65276;BME280;51875;49.994;14.052;2023-03-23T02:03:45;97675.50;;;7.86;100.00
65276;BME280;51875;49.994;14.052;2023-03-23T02:05:09;97672.50;;;8.00;100.00
65276;BME280;51875;49.994;14.052;2023-03-23T02:06:26;97673.41;;;7.99;100.00
65276;BME280;51875;49.994;14.052;2023-03-23T02:07:42;97669.69;;;8.08;100.00
65276;BME280;51875;49.994;14.052;2023-03-23T02:08:59;97670.50;;;8.09;100.00
65276;BME280;51875;49.994;14.052;2023-03-23T02:10:15;97666.97;;;8.11;100.00
65276;BME280;51875;49.994;14.052;2023-03-23T02:11:30;97665.09;;;7.86;100.00
65276;BME280;51875;49.994;14.052;2023-03-23T02:12:46;97659.84;;;7.88;100.00
65276;BME280;51875;49.994;14.052;2023-03-23T02:14:02;97665.69;;;7.96;100.00
65276;BME280;51875;49.994;14.052;2023-03-23T02:15:18;97663.97;;;7.95;100.00
65276;BME280;51875;49.994;14.052;2023-03-23T02:16:42;97658.47;;;8.04;100.00
65276;BME280;51875;49.994;14.052;2023-03-23T02:18:20;97661.44;;;7.92;100.00
65276;BME280;51875;49.994;14.052;2023-03-23T02:19:57;97658.09;;;8.17;100.00
65276;BME280;51875;49.994;14.052;2023-03-23T02:21:33;97665.94;;;8.17;100.00
65276;BME280;51875;49.994;14.052;2023-03-23T02:23:19;97652.13;;;8.13;100.00
65276;BME280;51875;49.994;14.052;2023-03-23T02:31:10;97643.91;;;7.69;100.00
65276;BME280;51875;49.994;14.052;2023-03-23T02:35:38;97644.34;;;7.53;100.00
65276;BME280;51875;49.994;14.052;2023-03-23T02:37:03;97641.16;;;7.73;100.00
65276;BME280;51875;49.994;14.052;2023-03-23T02:38:39;97639.34;;;7.75;100.00
65276;BME280;51875;49.994;14.052;2023-03-23T02:40:13;97643.63;;;7.78;100.00
65276;BME280;51875;49.994;14.052;2023-03-23T02:41:31;97639.78;;;7.61;100.00
65276;BME280;51875;49.994;14.052;2023-03-23T02:42:52;97647.03;;;7.80;100.00
65276;BME280;51875;49.994;14.052;2023-03-23T02:44:10;97638.88;;;7.93;100.00
65276;BME280;51875;49.994;14.052;2023-03-23T02:45:29;97635.38;;;7.92;100.00
65276;BME280;51875;49.994;14.052;2023-03-23T02:46:46;97635.38;;;7.92;100.00
65276;BME280;51875;49.994;14.052;2023-03-23T02:48:04;97642.97;;;8.00;100.00
65276;BME280;51875;49.994;14.052;2023-03-23T02:49:22;97642.00;;;8.04;100.00
65276;BME280;51875;49.994;14.052;2023-03-23T02:50:42;97639.22;;;8.09;100.00
65276;BME280;51875;49.994;14.052;2023-03-23T02:51:59;97638.88;;;7.93;100.00
65276;BME280;51875;49.994;14.052;2023-03-23T02:53:19;97642.41;;;7.90;100.00
65276;BME280;51875;49.994;14.052;2023-03-23T02:54:36;97643.09;;;7.95;100.00
65276;BME280;51875;49.994;14.052;2023-03-23T02:55:54;97643.03;;;7.98;100.00
65276;BME280;51875;49.994;14.052;2023-03-23T02:57:11;97643.75;;;8.03;100.00
65276;BME280;51875;49.994;14.052;2023-03-23T02:58:27;97636.81;;;8.02;100.00
65276;BME280;51875;49.994;14.052;2023-03-23T02:59:42;97640.44;;;7.98;100.00
65276;BME280;51875;49.994;14.052;2023-03-23T03:00:59;97634.97;;;8.06;100.00
65276;BME280;51875;49.994;14.052;2023-03-23T03:02:21;97642.69;;;8.09;100.00
65276;BME280;51875;49.994;14.052;2023-03-23T03:03:38;97637.53;;;8.08;100.00
65276;BME280;51875;49.994;14.052;2023-03-23T03:05:04;97646.72;;;7.91;100.00
65276;BME280;51875;49.994;14.052;2023-03-23T03:06:41;97641.84;;;8.09;100.00
65276;BME280;51875;49.994;14.052;2023-03-23T03:08:15;97635.81;;;8.06;100.00
65276;BME280;51875;49.994;14.052;2023-03-23T03:09:48;97639.06;;;8.15;100.00
65276;BME280;51875;49.994;14.052;2023-03-23T03:11:07;97638.91;;;8.19;100.00
65276;BME280;51875;49.994;14.052;2023-03-23T03:12:36;97642.34;;;8.20;100.00
65276;BME280;51875;49.994;14.052;2023-03-23T03:14:04;97642.16;;;7.98;100.00
65276;BME280;51875;49.994;14.052;2023-03-23T03:15:27;97639.88;;;8.15;100.00
65276;BME280;51875;49.994;14.052;2023-03-23T03:16:56;97645.88;;;8.19;100.00
65276;BME280;51875;49.994;14.052;2023-03-23T03:18:42;97649.28;;;8.21;100.00
65276;BME280;51875;49.994;14.052;2023-03-23T03:20:02;97650.75;;;8.01;100.00
65276;BME280;51875;49.994;14.052;2023-03-23T03:21:28;97647.38;;;7.98;100.00
65276;BME280;51875;49.994;14.052;2023-03-23T03:22:46;97641.09;;;8.05;100.00
65276;BME280;51875;49.994;14.052;2023-03-23T03:24:03;97639.44;;;8.02;100.00
65276;BME280;51875;49.994;14.052;2023-03-23T03:25:23;97647.28;;;7.72;100.00
65276;BME280;51875;49.994;14.052;2023-03-23T03:26:43;97650.69;;;7.74;100.00
65276;BME280;51875;49.994;14.052;2023-03-23T03:28:03;97647.81;;;7.84;100.00
65276;BME280;51875;49.994;14.052;2023-03-23T03:29:35;97647.34;;;7.99;100.00
65276;BME280;51875;49.994;14.052;2023-03-23T03:30:54;97653.38;;;8.01;100.00
65276;BME280;51875;49.994;14.052;2023-03-23T03:32:14;97645.34;;;8.08;100.00
65276;BME280;51875;49.994;14.052;2023-03-23T03:33:32;97649.09;;;7.99;100.00
65276;BME280;51875;49.994;14.052;2023-03-23T03:34:49;97649.53;;;8.13;100.00
65276;BME280;51875;49.994;14.052;2023-03-23T03:36:06;97646.88;;;8.15;100.00
65276;BME280;51875;49.994;14.052;2023-03-23T03:37:24;97642.59;;;8.12;100.00
65276;BME280;51875;49.994;14.052;2023-03-23T03:38:44;97634.34;;;7.98;100.00
65276;BME280;51875;49.994;14.052;2023-03-23T03:40:00;97630.00;;;7.68;100.00
65276;BME280;51875;49.994;14.052;2023-03-23T03:41:17;97632.44;;;7.74;100.00
65276;BME280;51875;49.994;14.052;2023-03-23T03:42:34;97639.25;;;7.78;100.00
65276;BME280;51875;49.994;14.052;2023-03-23T03:43:49;97644.88;;;7.95;100.00
65276;BME280;51875;49.994;14.052;2023-03-23T03:45:07;97639.09;;;7.85;100.00
65276;BME280;51875;49.994;14.052;2023-03-23T03:46:24;97643.31;;;7.89;100.00
65276;BME280;51875;49.994;14.052;2023-03-23T03:47:42;97639.78;;;7.90;100.00
65276;BME280;51875;49.994;14.052;2023-03-23T03:48:58;97638.19;;;7.86;100.00
65276;BME280;51875;49.994;14.052;2023-03-23T03:50:15;97638.81;;;7.64;100.00
65276;BME280;51875;49.994;14.052;2023-03-23T03:51:32;97643.28;;;7.90;100.00
65276;BME280;51875;49.994;14.052;2023-03-23T03:52:47;97641.38;;;7.96;100.00
65276;BME280;51875;49.994;14.052;2023-03-23T03:54:03;97637.69;;;7.73;100.00
65276;BME280;51875;49.994;14.052;2023-03-23T03:55:19;97637.28;;;7.87;100.00
65276;BME280;51875;49.994;14.052;2023-03-23T03:56:34;97640.28;;;7.73;100.00
65276;BME280;51875;49.994;14.052;2023-03-23T03:57:55;97644.84;;;7.96;100.00
65276;BME280;51875;49.994;14.052;2023-03-23T03:59:12;97646.25;;;7.78;100.00
65276;BME280;51875;49.994;14.052;2023-03-23T04:00:27;97652.94;;;7.87;100.00
65276;BME280;51875;49.994;14.052;2023-03-23T04:01:43;97650.44;;;7.82;100.00
65276;BME280;51875;49.994;14.052;2023-03-23T04:02:59;97649.16;;;7.97;100.00
65276;BME280;51875;49.994;14.052;2023-03-23T04:04:15;97648.00;;;8.06;100.00
65276;BME280;51875;49.994;14.052;2023-03-23T04:05:30;97648.75;;;7.81;100.00
65276;BME280;51875;49.994;14.052;2023-03-23T04:06:46;97657.53;;;8.07;100.00
65276;BME280;51875;49.994;14.052;2023-03-23T04:08:04;97651.19;;;8.16;100.00
65276;BME280;51875;49.994;14.052;2023-03-23T04:09:20;97658.22;;;8.14;100.00
65276;BME280;51875;49.994;14.052;2023-03-23T04:10:37;97655.78;;;8.08;100.00
65276;BME280;51875;49.994;14.052;2023-03-23T04:11:52;97659.59;;;7.97;100.00
65276;BME280;51875;49.994;14.052;2023-03-23T04:13:08;97658.91;;;7.90;100.00
65276;BME280;51875;49.994;14.052;2023-03-23T04:14:23;97658.16;;;7.85;100.00
65276;BME280;51875;49.994;14.052;2023-03-23T04:15:39;97653.44;;;7.68;100.00
65276;BME280;51875;49.994;14.052;2023-03-23T04:16:54;97652.72;;;7.65;100.00
65276;BME280;51875;49.994;14.052;2023-03-23T04:18:13;97659.13;;;7.83;100.00
65276;BME280;51875;49.994;14.052;2023-03-23T04:19:30;97658.47;;;8.04;100.00
65276;BME280;51875;49.994;14.052;2023-03-23T04:20:48;97657.88;;;7.96;100.00
65276;BME280;51875;49.994;14.052;2023-03-23T04:22:04;97656.56;;;8.10;100.00
65276;BME280;51875;49.994;14.052;2023-03-23T04:23:21;97656.84;;;7.40;100.00
65276;BME280;51875;49.994;14.052;2023-03-23T04:24:37;97659.44;;;7.40;100.00
65276;BME280;51875;49.994;14.052;2023-03-23T04:25:53;97650.78;;;7.71;100.00
65276;BME280;51875;49.994;14.052;2023-03-23T04:27:12;97650.00;;;7.68;100.00
65276;BME280;51875;49.994;14.052;2023-03-23T04:28:29;97656.25;;;7.62;100.00
65276;BME280;51875;49.994;14.052;2023-03-23T04:29:48;97654.50;;;7.93;100.00
65276;BME280;51875;49.994;14.052;2023-03-23T04:31:05;97654.53;;;7.91;100.00
65276;BME280;51875;49.994;14.052;2023-03-23T04:32:20;97652.25;;;8.09;100.00
65276;BME280;51875;49.994;14.052;2023-03-23T04:33:36;97657.53;;;8.07;100.00
65276;BME280;51875;49.994;14.052;2023-03-23T04:34:52;97652.19;;;7.82;100.00
65276;BME280;51875;49.994;14.052;2023-03-23T04:36:08;97655.91;;;8.03;100.00
65276;BME280;51875;49.994;14.052;2023-03-23T04:37:24;97655.59;;;8.14;100.00
65276;BME280;51875;49.994;14.052;2023-03-23T04:38:41;97668.13;;;8.01;100.00
65276;BME280;51875;49.994;14.052;2023-03-23T04:39:58;97657.47;;;8.09;100.00
65276;BME280;51875;49.994;14.052;2023-03-23T04:41:16;97657.19;;;8.18;100.00
65276;BME280;51875;49.994;14.052;2023-03-23T04:42:32;97655.81;;;8.34;100.00
65276;BME280;51875;49.994;14.052;2023-03-23T04:43:48;97653.97;;;8.38;100.00
65276;BME280;51875;49.994;14.052;2023-03-23T04:45:08;97662.75;;;8.07;100.00
65276;BME280;51875;49.994;14.052;2023-03-23T04:46:25;97672.16;;;8.13;100.00
65276;BME280;51875;49.994;14.052;2023-03-23T04:47:44;97667.72;;;8.15;100.00
65276;BME280;51875;49.994;14.052;2023-03-23T04:49:08;97664.22;;;8.16;100.00
65276;BME280;51875;49.994;14.052;2023-03-23T04:50:29;97670.38;;;7.85;100.00
65276;BME280;51875;49.994;14.052;2023-03-23T04:51:49;97669.97;;;8.27;100.00
65276;BME280;51875;49.994;14.052;2023-03-23T04:53:06;97668.78;;;8.09;100.00
65276;BME280;51875;49.994;14.052;2023-03-23T04:54:21;97668.34;;;8.23;100.00
65276;BME280;51875;49.994;14.052;2023-03-23T04:55:37;97669.50;;;8.41;100.00
65276;BME280;51875;49.994;14.052;2023-03-23T04:56:52;97668.06;;;8.04;100.00
65276;BME280;51875;49.994;14.052;2023-03-23T04:58:11;97657.25;;;8.16;100.00
65276;BME280;51875;49.994;14.052;2023-03-23T04:59:29;97664.19;;;8.17;100.00
65276;BME280;51875;49.994;14.052;2023-03-23T05:00:46;97671.34;;;7.81;100.00
65276;BME280;51875;49.994;14.052;2023-03-23T05:02:04;97664.22;;;8.16;100.00
65276;BME280;51875;49.994;14.052;2023-03-23T05:03:20;97664.91;;;8.21;100.00
65276;BME280;51875;49.994;14.052;2023-03-23T05:04:36;97666.44;;;8.28;100.00
65276;BME280;51875;49.994;14.052;2023-03-23T05:05:52;97661.59;;;8.17;100.00
65276;BME280;51875;49.994;14.052;2023-03-23T05:07:10;97660.50;;;8.23;100.00
65276;BME280;51875;49.994;14.052;2023-03-23T05:08:26;97664.75;;;8.27;100.00
65276;BME280;51875;49.994;14.052;2023-03-23T05:09:46;97660.81;;;8.14;100.00
65276;BME280;51875;49.994;14.052;2023-03-23T05:11:03;97662.28;;;8.23;100.00
65276;BME280;51875;49.994;14.052;2023-03-23T05:12:22;97668.34;;;7.95;100.00
65276;BME280;51875;49.994;14.052;2023-03-23T05:13:38;97668.81;;;8.08;100.00
65276;BME280;51875;49.994;14.052;2023-03-23T05:14:55;97664.34;;;8.11;100.00
65276;BME280;51875;49.994;14.052;2023-03-23T05:16:11;97670.66;;;8.32;100.00
65276;BME280;51875;49.994;14.052;2023-03-23T05:17:27;97667.53;;;8.21;100.00
65276;BME280;51875;49.994;14.052;2023-03-23T05:18:44;97666.81;;;8.44;100.00
65276;BME280;51875;49.994;14.052;2023-03-23T05:20:03;97666.50;;;8.55;100.00
65276;BME280;51875;49.994;14.052;2023-03-23T05:21:20;97656.19;;;8.52;100.00
65276;BME280;51875;49.994;14.052;2023-03-23T05:22:36;97656.00;;;8.57;100.00
65276;BME280;51875;49.994;14.052;2023-03-23T05:23:52;97657.78;;;8.56;100.00
65276;BME280;51875;49.994;14.052;2023-03-23T05:25:13;97657.78;;;8.56;100.00
65276;BME280;51875;49.994;14.052;2023-03-23T05:26:29;97656.91;;;8.56;100.00
65276;BME280;51875;49.994;14.052;2023-03-23T05:27:45;97656.72;;;8.62;100.00
65276;BME280;51875;49.994;14.052;2023-03-23T05:29:04;97656.97;;;8.54;100.00
65276;BME280;51875;49.994;14.052;2023-03-23T05:30:21;97656.09;;;8.81;100.00
65276;BME280;51875;49.994;14.052;2023-03-23T05:31:36;97656.06;;;8.55;100.00
65276;BME280;51875;49.994;14.052;2023-03-23T05:32:52;97658.78;;;8.52;100.00
65276;BME280;51875;49.994;14.052;2023-03-23T05:34:08;97655.38;;;8.48;100.00
65276;BME280;51875;49.994;14.052;2023-03-23T05:35:24;97659.22;;;8.65;100.00
65276;BME280;51875;49.994;14.052;2023-03-23T05:36:42;97658.25;;;8.41;100.00
65276;BME280;51875;49.994;14.052;2023-03-23T05:37:59;97655.56;;;8.42;100.00
65276;BME280;51875;49.994;14.052;2023-03-23T05:39:14;97653.97;;;8.67;100.00
65276;BME280;51875;49.994;14.052;2023-03-23T05:40:32;97652.44;;;8.86;100.00
65276;BME280;51875;49.994;14.052;2023-03-23T05:41:47;97650.63;;;8.88;100.00
65276;BME280;51875;49.994;14.052;2023-03-23T05:43:03;97649.78;;;8.88;100.00
65276;BME280;51875;49.994;14.052;2023-03-23T05:44:19;97647.22;;;8.59;100.00
65276;BME280;51875;49.994;14.052;2023-03-23T05:45:35;97647.44;;;8.80;100.00
65276;BME280;51875;49.994;14.052;2023-03-23T05:46:51;97647.59;;;8.75;100.00
65276;BME280;51875;49.994;14.052;2023-03-23T05:48:07;97651.16;;;8.73;100.00
65276;BME280;51875;49.994;14.052;2023-03-23T05:49:22;97653.84;;;8.97;100.00
65276;BME280;51875;49.994;14.052;2023-03-23T05:50:40;97652.44;;;8.86;100.00
65276;BME280;51875;49.994;14.052;2023-03-23T05:51:56;97641.13;;;8.60;100.00
65276;BME280;51875;49.994;14.052;2023-03-23T05:53:12;97657.63;;;8.88;100.00
65276;BME280;51875;49.994;14.052;2023-03-23T05:54:27;97645.63;;;8.55;100.00
65276;BME280;51875;49.994;14.052;2023-03-23T05:55:43;97644.34;;;8.69;100.00
65276;BME280;51875;49.994;14.052;2023-03-23T05:56:59;97642.56;;;8.69;100.00
65276;BME280;51875;49.994;14.052;2023-03-23T05:58:14;97647.28;;;8.58;100.00
65276;BME280;51875;49.994;14.052;2023-03-23T05:59:30;97642.03;;;8.59;100.00
65276;BME280;51875;49.994;14.052;2023-03-23T06:00:46;97643.34;;;8.71;100.00
65276;BME280;51875;49.994;14.052;2023-03-23T06:02:02;97627.47;;;8.52;100.00
65276;BME280;51875;49.994;14.052;2023-03-23T06:03:18;97624.91;;;8.78;100.00
65276;BME280;51875;49.994;14.052;2023-03-23T06:04:34;97630.16;;;8.76;100.00
65276;BME280;51875;49.994;14.052;2023-03-23T06:05:50;97630.63;;;8.62;100.00
65276;BME280;51875;49.994;14.052;2023-03-23T06:07:07;97626.34;;;8.86;100.00
65276;BME280;51875;49.994;14.052;2023-03-23T06:08:22;97625.91;;;8.99;100.00
65276;BME280;51875;49.994;14.052;2023-03-23T06:09:38;97630.13;;;9.03;100.00
65276;BME280;51875;49.994;14.052;2023-03-23T06:10:54;97634.41;;;9.06;100.00
65276;BME280;51875;49.994;14.052;2023-03-23T06:12:10;97636.19;;;9.29;100.00
65276;BME280;51875;49.994;14.052;2023-03-23T06:13:26;97634.56;;;9.50;100.00
65276;BME280;51875;49.994;14.052;2023-03-23T06:14:41;97633.97;;;9.42;100.00
65276;BME280;51875;49.994;14.052;2023-03-23T06:15:58;97637.56;;;9.63;100.00
65276;BME280;51875;49.994;14.052;2023-03-23T06:17:17;97638.13;;;9.71;100.00
65276;BME280;51875;49.994;14.052;2023-03-23T06:18:32;97640.66;;;9.97;100.00
65276;BME280;51875;49.994;14.052;2023-03-23T06:19:49;97639.34;;;10.09;100.00
65276;BME280;51875;49.994;14.052;2023-03-23T06:21:07;97646.28;;;10.10;100.00
65276;BME280;51875;49.994;14.052;2023-03-23T06:22:23;97643.13;;;10.24;100.00
65276;BME280;51875;49.994;14.052;2023-03-23T06:23:38;97638.97;;;10.40;100.00
65276;BME280;51875;49.994;14.052;2023-03-23T06:24:55;97643.06;;;10.25;100.00
65276;BME280;51875;49.994;14.052;2023-03-23T06:26:14;97638.91;;;10.20;100.00
65276;BME280;51875;49.994;14.052;2023-03-23T06:27:31;97643.72;;;10.30;100.00
65276;BME280;51875;49.994;14.052;2023-03-23T06:28:47;97640.13;;;10.33;100.00
65276;BME280;51875;49.994;14.052;2023-03-23T06:30:04;97647.50;;;10.23;100.00
65276;BME280;51875;49.994;14.052;2023-03-23T06:31:20;97643.41;;;10.38;100.00
65276;BME280;51875;49.994;14.052;2023-03-23T06:32:37;97642.59;;;10.60;100.00
65276;BME280;51875;49.994;14.052;2023-03-23T06:33:53;97637.81;;;10.70;100.00
65276;BME280;51875;49.994;14.052;2023-03-23T06:35:09;97635.47;;;10.84;100.00
65276;BME280;51875;49.994;14.052;2023-03-23T06:36:27;97640.06;;;11.00;100.00
65276;BME280;51875;49.994;14.052;2023-03-23T06:37:43;97636.94;;;10.92;97.95
65276;BME280;51875;49.994;14.052;2023-03-23T06:38:58;97632.84;;;10.84;100.00
65276;BME280;51875;49.994;14.052;2023-03-23T06:40:14;97636.72;;;10.96;96.63
65276;BME280;51875;49.994;14.052;2023-03-23T06:41:33;97639.53;;;11.12;92.91
65276;BME280;51875;49.994;14.052;2023-03-23T06:42:49;97643.66;;;11.18;91.62
65276;BME280;51875;49.994;14.052;2023-03-23T06:44:05;97633.97;;;10.99;93.26
65276;BME280;51875;49.994;14.052;2023-03-23T06:45:21;97636.59;;;11.20;91.59
65276;BME280;51875;49.994;14.052;2023-03-23T06:46:37;97634.28;;;11.33;87.28
65276;BME280;51875;49.994;14.052;2023-03-23T06:47:52;97642.84;;;11.37;91.48
65276;BME280;51875;49.994;14.052;2023-03-23T06:49:09;97640.53;;;11.50;87.99
65276;BME280;51875;49.994;14.052;2023-03-23T06:50:25;97637.22;;;11.65;86.47
65276;BME280;51875;49.994;14.052;2023-03-23T06:51:41;97638.53;;;11.76;82.62
65276;BME280;51875;49.994;14.052;2023-03-23T06:52:57;97639.22;;;11.79;81.37
65276;BME280;51875;49.994;14.052;2023-03-23T06:54:13;97636.13;;;11.90;79.44
65276;BME280;51875;49.994;14.052;2023-03-23T06:55:28;97637.03;;;11.89;78.60
65276;BME280;51875;49.994;14.052;2023-03-23T06:56:44;97632.34;;;12.15;77.46
65276;BME280;51875;49.994;14.052;2023-03-23T06:58:00;97632.44;;;12.13;76.28
65276;BME280;51875;49.994;14.052;2023-03-23T06:59:16;97642.34;;;12.26;76.70